Time;durP1;ratioP1;P1;durP2;ratioP2;P2;SDS_P1;SDS_P2;PMS_P1;PMS_P2;Temp;Humidity;BMP_temperature;BMP_pressure;BME280_temperature;BME280_humidity;BME280_pressure;Samples;Min_cycle;Max_cycle;Signal;HPM_P1;HPM_P2
2023/03/15 00:06:12;;;;;;;0.20;0.00;;;11.30;99.90;;;;;;21059867;28;20416;-67
2023/03/15 00:16:17;;;;;;;0.20;0.10;;;11.20;99.90;;;;;;21043906;28;20719;-67
2023/03/15 00:26:22;;;;;;;0.20;0.10;;;11.10;99.90;;;;;;21069750;28;20477;-67
2023/03/15 00:36:26;;;;;;;0.20;0.00;;;11.00;99.90;;;;;;21068278;28;20410;-68
2023/03/15 00:46:32;;;;;;;0.20;0.00;;;11.10;99.90;;;;;;21125846;28;20403;-67
2023/03/15 00:56:37;;;;;;;0.20;0.10;;;11.00;99.90;;;;;;21079316;28;20575;-67
2023/03/15 01:06:42;;;;;;;0.20;0.10;;;11.20;99.90;;;;;;21147674;28;20399;-68
2023/03/15 01:16:46;;;;;;;0.20;0.00;;;11.00;99.90;;;;;;21091064;27;20403;-68
2023/03/15 01:26:51;;;;;;;0.20;0.00;;;11.30;99.90;;;;;;21074827;28;20417;-68
2023/03/15 01:36:55;;;;;;;0.20;0.00;;;11.20;99.90;;;;;;21091626;28;21130;-69
2023/03/15 01:47:00;;;;;;;0.20;0.00;;;11.20;99.90;;;;;;21153958;28;20481;-69
2023/03/15 01:57:08;;;;;;;0.20;0.07;;;11.50;99.90;;;;;;21153443;28;20975;-69
2023/03/15 02:07:16;;;;;;;0.20;0.00;;;11.30;99.90;;;;;;21147207;28;20448;-68
2023/03/15 02:17:25;;;;;;;0.20;0.00;;;11.60;99.90;;;;;;21151827;28;20403;-69
2023/03/15 02:27:33;;;;;;;0.20;0.00;;;11.70;99.90;;;;;;21133186;28;20391;-68
2023/03/15 02:37:37;;;;;;;0.20;0.07;;;12.10;99.90;;;;;;21149614;28;20877;-67
2023/03/15 02:47:43;;;;;;;0.20;0.10;;;12.40;99.90;;;;;;21130622;28;20406;-68
2023/03/15 02:57:47;;;;;;;0.20;0.10;;;12.60;99.90;;;;;;21148641;28;20420;-68
2023/03/15 03:07:52;;;;;;;0.20;0.10;;;12.80;99.90;;;;;;21147616;28;20399;-69
2023/03/15 03:17:56;;;;;;;0.20;0.10;;;12.90;99.90;;;;;;21128185;28;20410;-68
2023/03/15 03:28:03;;;;;;;0.20;0.00;;;13.10;99.90;;;;;;21127821;28;20395;-70
2023/03/15 03:38:06;;;;;;;0.20;0.00;;;13.20;99.90;;;;;;21146172;28;20411;-68
2023/03/15 03:48:12;;;;;;;0.20;0.00;;;13.20;99.90;;;;;;21126212;28;20500;-68
2023/03/15 03:58:16;;;;;;;0.20;0.10;;;13.30;99.90;;;;;;21126298;28;20808;-68
2023/03/15 04:08:21;;;;;;;0.20;0.05;;;13.20;99.90;;;;;;21125519;28;20403;-68
2023/03/15 04:18:25;;;;;;;0.20;0.10;;;13.00;99.90;;;;;;21124849;28;20472;-68
2023/03/15 04:28:30;;;;;;;0.20;0.00;;;12.70;99.90;;;;;;21143294;28;20407;-68
2023/03/15 04:38:34;;;;;;;0.20;0.00;;;12.20;99.90;;;;;;21142705;28;20410;-68
2023/03/15 04:48:40;;;;;;;0.20;0.00;;;11.90;99.90;;;;;;21141816;28;20460;-68
2023/03/15 04:58:44;;;;;;;0.20;0.00;;;11.60;99.90;;;;;;21142102;28;20402;-69
2023/03/15 05:08:49;;;;;;;0.20;0.00;;;11.50;99.90;;;;;;21127413;28;20782;-69
2023/03/15 05:18:55;;;;;;;0.20;0.03;;;11.80;99.90;;;;;;21120931;28;20639;-69
2023/03/15 05:29:00;;;;;;;0.20;0.10;;;11.90;99.90;;;;;;21155621;28;20749;-69
2023/03/15 05:39:04;;;;;;;0.20;0.10;;;12.10;99.90;;;;;;21115435;28;20416;-69
2023/03/15 05:49:10;;;;;;;0.20;0.10;;;12.10;99.90;;;;;;21131069;28;20429;-68
2023/03/15 05:59:13;;;;;;;0.20;0.08;;;11.80;99.90;;;;;;21117575;28;20525;-68
2023/03/15 06:09:19;;;;;;;0.20;0.10;;;11.60;99.90;;;;;;21129200;28;20679;-68
2023/03/15 06:19:23;;;;;;;0.20;0.00;;;11.70;99.90;;;;;;21131570;28;20421;-70
2023/03/15 06:29:29;;;;;;;0.20;0.00;;;11.90;99.90;;;;;;21131107;28;20873;-69
2023/03/15 06:39:34;;;;;;;0.20;0.10;;;12.00;99.90;;;;;;21129681;28;20464;-69
2023/03/15 06:49:39;;;;;;;0.20;0.10;;;12.00;99.90;;;;;;21144942;28;20410;-67
2023/03/15 06:59:43;;;;;;;0.20;0.10;;;12.10;99.90;;;;;;21142215;28;20520;-69
2023/03/15 07:09:49;;;;;;;0.20;0.10;;;12.00;99.90;;;;;;21104949;28;20482;-67
2023/03/15 07:19:53;;;;;;;0.20;0.10;;;12.00;99.90;;;;;;21125139;28;20927;-70
2023/03/15 07:30:00;;;;;;;0.20;0.08;;;12.20;99.90;;;;;;21142687;28;20873;-69
2023/03/15 07:40:08;;;;;;;0.20;0.00;;;12.50;99.90;;;;;;21144236;28;20700;-68
2023/03/15 07:50:16;;;;;;;0.20;0.10;;;12.90;99.90;;;;;;21142708;28;20395;-68
2023/03/15 08:00:21;;;;;;;0.20;0.10;;;12.90;99.90;;;;;;21107631;28;20808;-68
2023/03/15 08:10:27;;;;;;;0.20;0.00;;;13.50;99.90;;;;;;21140545;28;20395;-65
2023/03/15 08:20:32;;;;;;;0.20;0.00;;;14.20;99.90;;;;;;21140047;28;20507;-68
2023/03/15 08:30:38;;;;;;;0.20;0.10;;;14.30;99.90;;;;;;21138702;28;20403;-68
2023/03/15 08:40:42;;;;;;;0.20;0.10;;;14.60;99.90;;;;;;21091743;28;20754;-68
2023/03/15 08:50:47;;;;;;;0.20;0.00;;;14.90;99.90;;;;;;21042331;28;20395;-69
2023/03/15 09:00:51;;;;;;;0.20;0.00;;;15.50;99.90;;;;;;21055690;28;20411;-70
2023/03/15 09:10:57;;;;;;;0.20;0.10;;;15.70;99.90;;;;;;21101977;28;20430;-69
2023/03/15 09:21:01;;;;;;;0.20;0.10;;;16.40;99.90;;;;;;21100019;28;20782;-69
2023/03/15 09:31:07;;;;;;;0.20;0.10;;;15.90;99.90;;;;;;21048009;28;20938;-69
2023/03/15 09:41:19;;;;;;;0.20;0.10;;;15.90;99.90;;;;;;21121791;28;20909;-70
2023/03/15 09:51:34;;;;;;;0.20;0.10;;;16.10;99.90;;;;;;21128872;28;20517;-68
2023/03/15 10:01:40;;;;;;;0.20;0.10;;;16.40;99.90;;;;;;21128382;28;20414;-68
2023/03/15 10:11:53;;;;;;;0.20;0.10;;;16.50;99.90;;;;;;21074093;28;20902;-69
2023/03/15 10:22:03;;;;;;;0.20;0.10;;;16.80;99.90;;;;;;21104494;28;20493;-68
2023/03/15 10:32:16;;;;;;;0.20;0.10;;;17.00;99.90;;;;;;21059453;28;20428;-68
2023/03/15 10:42:38;;;;;;;0.20;0.10;;;16.90;99.90;;;;;;21128699;28;20743;-67
2023/03/15 10:52:45;;;;;;;0.20;0.10;;;17.20;99.90;;;;;;21083322;28;20400;-68
2023/03/15 11:03:00;;;;;;;0.20;0.10;;;17.60;99.90;;;;;;21098757;28;20397;-68
2023/03/15 11:13:13;;;;;;;0.20;0.10;;;17.80;99.90;;;;;;21138955;28;20395;-68
2023/03/15 11:23:21;;;;;;;0.20;0.10;;;18.40;99.90;;;;;;21118397;28;20431;-67
2023/03/15 11:33:37;;;;;;;0.20;0.10;;;18.30;99.90;;;;;;21130262;28;20725;-68
2023/03/15 11:43:50;;;;;;;0.20;0.00;;;19.50;99.90;;;;;;21142955;28;20479;-69
2023/03/15 11:54:06;;;;;;;0.20;0.10;;;20.00;99.90;;;;;;21108053;28;20414;-67
2023/03/15 12:04:44;;;;;;;0.20;0.10;;;20.30;99.90;;;;;;21102036;28;20410;-68
2023/03/15 12:15:02;;;;;;;0.20;0.10;;;20.80;99.90;;;;;;21044108;28;20400;-68
2023/03/15 12:25:14;;;;;;;0.20;0.00;;;21.20;99.90;;;;;;21066006;28;20407;-67
2023/03/15 12:35:21;;;;;;;0.20;0.10;;;21.50;99.90;;;;;;21062279;28;20399;-68
2023/03/15 12:45:45;;;;;;;0.20;0.00;;;21.30;99.90;;;;;;21156971;28;20413;-67
2023/03/15 12:55:52;;;;;;;0.20;0.10;;;21.60;99.90;;;;;;21138170;28;20899;-68
2023/03/15 13:06:16;;;;;;;0.20;0.00;;;21.40;99.90;;;;;;21137132;28;20468;-68
2023/03/15 13:16:28;;;;;;;0.20;0.00;;;22.00;99.90;;;;;;21136375;28;20390;-68
2023/03/15 13:26:50;;;;;;;0.20;0.00;;;22.90;99.90;;;;;;21117215;28;20754;-67
2023/03/15 13:36:57;;;;;;;0.20;0.00;;;22.90;99.90;;;;;;21097177;28;20495;-67
2023/03/15 13:47:01;;;;;;;0.20;0.00;;;23.40;99.90;;;;;;21106253;28;20393;-67
2023/03/15 13:57:11;;;;;;;0.20;0.00;;;22.80;99.90;;;;;;21107628;28;20393;-70
2023/03/15 14:07:26;;;;;;;0.20;0.10;;;22.90;99.90;;;;;;21075505;28;20467;-67
2023/03/15 14:17:32;;;;;;;0.20;0.00;;;22.60;99.90;;;;;;21087921;28;20547;-68
2023/03/15 14:27:36;;;;;;;0.20;0.00;;;24.20;99.90;;;;;;21086510;28;20391;-67
2023/03/15 14:37:42;;;;;;;0.20;0.00;;;23.70;99.90;;;;;;21081950;28;20491;-69
2023/03/15 14:47:49;;;;;;;0.20;0.03;;;24.20;99.90;;;;;;21071104;28;20392;-67
2023/03/15 14:58:02;;;;;;;0.20;0.00;;;24.10;99.90;;;;;;21040915;28;20968;-69
2023/03/15 15:08:11;;;;;;;0.20;0.00;;;23.50;99.90;;;;;;21038535;28;20471;-69
2023/03/15 15:18:19;;;;;;;0.20;0.00;;;23.50;99.90;;;;;;21067655;28;21300;-69
2023/03/15 15:28:23;;;;;;;0.20;0.00;;;23.20;99.90;;;;;;21082779;28;20474;-70
2023/03/15 15:38:40;;;;;;;0.20;0.00;;;22.70;99.90;;;;;;21065891;28;20402;-69
2023/03/15 15:48:44;;;;;;;0.20;0.00;;;22.90;99.90;;;;;;21079029;28;21118;-69
2023/03/15 15:58:50;;;;;;;0.20;0.00;;;21.90;99.90;;;;;;21036256;28;20558;-69
2023/03/15 16:08:55;;;;;;;0.20;0.00;;;23.00;99.90;;;;;;21072535;28;20912;-69
2023/03/15 16:19:00;;;;;;;0.20;0.00;;;21.50;99.90;;;;;;21136246;28;20521;-69
2023/03/15 16:29:13;;;;;;;0.20;0.00;;;20.10;99.90;;;;;;21118236;28;20395;-70
2023/03/15 16:39:20;;;;;;;0.20;0.03;;;19.50;99.90;;;;;;21101179;28;20410;-69
2023/03/15 16:49:24;;;;;;;0.20;0.10;;;18.30;99.90;;;;;;21072105;28;20408;-70
2023/03/15 16:59:30;;;;;;;0.20;0.10;;;18.30;99.90;;;;;;21096486;28;20450;-68
2023/03/15 17:09:34;;;;;;;0.20;0.00;;;17.70;99.90;;;;;;21082269;28;20548;-68
2023/03/15 17:19:40;;;;;;;0.20;0.10;;;17.30;99.90;;;;;;21066990;28;20499;-68
2023/03/15 17:29:44;;;;;;;0.20;0.10;;;16.90;99.90;;;;;;21065539;28;20990;-69
2023/03/15 17:39:49;;;;;;;0.20;0.05;;;16.40;99.90;;;;;;21117396;28;20463;-69
2023/03/15 17:49:53;;;;;;;0.20;0.10;;;16.20;99.90;;;;;;21096934;28;20396;-68
2023/03/15 17:59:59;;;;;;;0.20;0.00;;;16.00;99.90;;;;;;21065296;28;20487;-69
2023/03/15 18:10:02;;;;;;;0.20;0.10;;;15.80;99.90;;;;;;21066302;28;20380;-69
2023/03/15 18:20:10;;;;;;;0.20;0.10;;;15.60;99.90;;;;;;21046036;28;20440;-70
2023/03/15 18:30:18;;;;;;;0.20;0.10;;;15.50;99.90;;;;;;21042482;27;20474;-69
2023/03/15 18:40:28;;;;;;;0.20;0.10;;;15.40;99.90;;;;;;21111248;28;20496;-69
2023/03/15 18:50:32;;;;;;;0.20;0.10;;;15.10;99.90;;;;;;21090085;28;21054;-70
2023/03/15 19:00:37;;;;;;;0.20;0.10;;;15.00;99.90;;;;;;21092659;28;20510;-68
2023/03/15 19:10:43;;;;;;;0.20;0.00;;;14.90;99.90;;;;;;21070355;28;20395;-68
